Главная страница
METAR-TAF:

METAR-TAF

Аэропорты :

Николаев, Украина

широта: 47-03-29N, долгота: 031-55-15E, высота над уровнем моря: 56 м

Текущие метеонаблюдения

Эта сводка был подготовлена 12 часа и 51 минут назад, в 14:00 UTC
Ветер 2 Узел переменных направлений
Температура 32°C
Влажность 43%
Давление 1016 hPa
Видимость 10 км и более
небольшая облачность на высоте 3300 фута, Кучево-дождевые.
Отдельные облака на высоте 10000 фута

METAR: UKON 201400Z VRB01MPS 9999 FEW033CB SCT100 32/18 Q1016 NOSIG

Время: 05:51 (02:51 UTC)

Прогноз

Эта сводка был подготовлена 48 минут назад, в 02:03 UTC
Прогноз действительный с 21-го 03 UTC до 21-го 12 UTC
Ветер 6 Узел от северо-северо-восточный
Видимость 10 км и более
Рассеянная облачность на высоте 3000 фута, Кучево-дождевые.

TAF: UKON 210203Z 2103/2112 02003MPS 9999 BKN030CB TX33/2112Z TN20/2103Z

Метеонаблюдения и прогнозы для более 4000 аэропортов (сводки METAR и TAF).

Имеющиеся станции представлены на карте желтыми и красными точками.

Чтобы увидеть название станции, наведите на нее мышь.

Затем щелкните, чтобы увидеть метеонаблюдения и метеопрогнозы.

Управление картой: чтобы увеличить масштаб, щелкните зеленые кнопки с черным крестиком; чтобы уменьшить масштаб, щелкните зеленую кнопку с тире; для просмотра соседних карт щелкайте зеленые стрелки.


METAR-TAF: